Time;durP1;ratioP1;P1;durP2;ratioP2;P2;SDS_P1;SDS_P2;PMS_P1;PMS_P2;Temp;Humidity;BMP_temperature;BMP_pressure;BME280_temperature;BME280_humidity;BME280_pressure;Samples;Min_cycle;Max_cycle;Signal;HPM_P1;HPM_P2
2023/10/29 05:00:46;;;;;;;0.50;0.10;;;13.30;1.00;;;;;;5681438;23;21024;-75
2023/10/29 05:03:14;;;;;;;0.50;0.10;;;13.20;1.00;;;;;;4898388;29;20446;-75
2023/10/29 05:05:42;;;;;;;0.50;0.10;;;13.10;1.00;;;;;;4898631;29;20841;-74
2023/10/29 05:08:10;;;;;;;0.50;0.10;;;13.10;1.00;;;;;;4898459;29;20973;-74
2023/10/29 05:10:38;;;;;;;0.50;0.10;;;13.10;1.00;;;;;;4898206;29;20474;-74
2023/10/29 05:13:06;;;;;;;0.50;0.10;;;13.10;1.00;;;;;;4919830;23;20549;-70
2023/10/29 05:15:34;;;;;;;0.50;0.10;;;13.10;1.00;;;;;;4895538;29;20538;-71
2023/10/29 05:18:03;;;;;;;0.50;0.10;;;13.20;1.00;;;;;;4895470;29;20489;-72
2023/10/29 05:20:31;;;;;;;0.50;0.10;;;13.10;1.00;;;;;;4895645;29;20456;-72
2023/10/29 05:22:59;;;;;;;0.50;0.10;;;13.10;1.00;;;;;;4895857;29;20811;-71
2023/10/29 05:25:27;;;;;;;0.50;0.10;;;13.20;1.00;;;;;;4896460;29;20543;-71
2023/10/29 05:27:56;;;;;;;0.60;0.20;;;13.10;1.00;;;;;;4896490;29;20556;-71
2023/10/29 05:30:24;;;;;;;0.50;0.10;;;13.20;1.00;;;;;;4896055;29;20443;-71
2023/10/29 05:32:52;;;;;;;0.50;0.10;;;13.10;1.00;;;;;;4888808;29;20472;-72
2023/10/29 05:35:22;;;;;;;0.50;0.10;;;13.10;1.00;;;;;;4900251;29;20949;-71
2023/10/29 05:37:49;;;;;;;0.50;0.10;;;13.00;1.00;;;;;;4896048;29;20576;-72
2023/10/29 05:40:17;;;;;;;0.60;0.30;;;12.90;1.00;;;;;;4895984;29;20488;-72
2023/10/29 05:42:45;;;;;;;0.50;0.10;;;13.00;1.00;;;;;;4896176;29;20507;-71
2023/10/29 05:45:13;;;;;;;0.50;0.10;;;13.10;1.00;;;;;;4896047;29;20448;-72
2023/10/29 05:47:41;;;;;;;0.50;0.20;;;13.00;1.00;;;;;;4896378;29;20535;-71
2023/10/29 05:50:10;;;;;;;0.57;0.30;;;13.10;1.00;;;;;;4896097;29;21234;-70
2023/10/29 05:52:39;;;;;;;2.60;0.40;;;13.00;1.00;;;;;;4896531;29;20484;-71
2023/10/29 05:55:07;;;;;;;0.50;0.10;;;13.00;1.00;;;;;;4896419;29;20845;-70
2023/10/29 05:57:35;;;;;;;0.50;0.10;;;13.00;1.00;;;;;;4896235;29;20518;-70
2023/10/29 06:00:04;;;;;;;0.50;0.10;;;12.90;1.00;;;;;;4895935;29;20896;-71
2023/10/29 06:02:33;;;;;;;0.50;0.10;;;13.00;1.00;;;;;;4895653;29;20459;-73
2023/10/29 06:05:01;;;;;;;0.50;0.10;;;13.00;1.00;;;;;;4895737;29;20539;-70
2023/10/29 06:07:29;;;;;;;0.50;0.10;;;13.00;1.00;;;;;;4895619;29;20470;-73
2023/10/29 06:09:58;;;;;;;0.50;0.10;;;13.00;1.00;;;;;;4897123;29;20459;-71
2023/10/29 06:12:26;;;;;;;0.50;0.10;;;13.00;1.00;;;;;;4891705;29;20458;-70
2023/10/29 06:14:54;;;;;;;0.50;0.10;;;13.10;1.00;;;;;;4899071;29;20459;-72
2023/10/29 06:17:22;;;;;;;0.50;0.10;;;13.10;1.00;;;;;;4899913;29;20488;-73
2023/10/29 06:19:54;;;;;;;0.50;0.10;;;13.10;1.00;;;;;;4899728;29;20828;-72
2023/10/29 06:22:22;;;;;;;0.50;0.10;;;13.10;1.00;;;;;;4899313;29;20551;-71
2023/10/29 06:24:50;;;;;;;0.50;0.10;;;;;;;;;;4899641;29;20452;-73
2023/10/29 06:27:23;;;;;;;0.50;0.10;;;;;;;;;;4899473;29;20450;-73
2023/10/29 06:29:51;;;;;;;0.50;0.10;;;;;;;;;;4899460;29;20459;-72
2023/10/29 06:32:20;;;;;;;0.50;0.10;;;;;;;;;;4899761;29;20495;-71
2023/10/29 06:34:48;;;;;;;0.50;0.10;;;;;;;;;;4904181;29;20887;-71
2023/10/29 06:37:17;;;;;;;0.50;0.10;;;13.20;1.00;;;;;;4898725;29;20969;-72
2023/10/29 06:39:45;;;;;;;0.50;0.10;;;13.10;1.00;;;;;;4899020;29;20480;-71
2023/10/29 06:42:12;;;;;;;0.50;0.10;;;13.20;1.00;;;;;;4898785;29;20483;-71
2023/10/29 06:44:42;;;;;;;0.50;0.10;;;13.30;1.00;;;;;;4899182;29;20479;-71
2023/10/29 06:47:09;;;;;;;0.50;0.10;;;13.20;1.00;;;;;;4900162;29;20451;-71
2023/10/29 06:49:37;;;;;;;0.50;0.10;;;13.30;1.00;;;;;;4900078;29;20486;-73
2023/10/29 06:52:07;;;;;;;0.50;0.10;;;13.30;1.00;;;;;;4900052;29;20544;-73
2023/10/29 06:54:35;;;;;;;0.50;0.10;;;13.40;1.00;;;;;;4899297;29;20472;-71
2023/10/29 06:57:04;;;;;;;0.50;0.10;;;13.30;1.00;;;;;;4899206;29;20457;-73
2023/10/29 06:59:33;;;;;;;0.50;0.10;;;13.30;1.00;;;;;;4899565;29;20460;-72
2023/10/29 07:02:03;;;;;;;0.50;0.10;;;13.30;1.00;;;;;;4899319;29;20542;-71
2023/10/29 07:04:30;;;;;;;0.50;0.10;;;13.30;1.00;;;;;;4898451;29;20476;-70
2023/10/29 07:06:59;;;;;;;0.50;0.10;;;13.30;1.00;;;;;;4898673;29;20808;-71
2023/10/29 07:09:26;;;;;;;0.53;0.17;;;13.40;1.00;;;;;;4898617;29;20486;-71
2023/10/29 07:11:55;;;;;;;0.50;0.10;;;13.30;1.00;;;;;;4899097;29;20487;-72
2023/10/29 07:14:24;;;;;;;0.50;0.10;;;13.30;1.00;;;;;;4899709;29;20861;-72
2023/10/29 07:16:52;;;;;;;0.50;0.10;;;;;;;;;;4902106;29;20446;-71
2023/10/29 07:19:22;;;;;;;0.50;0.13;;;;;;;;;;4902882;29;20553;-71
2023/10/29 07:21:50;;;;;;;0.50;0.10;;;13.40;1.00;;;;;;4903532;29;20452;-72
2023/10/29 07:24:18;;;;;;;0.50;0.10;;;13.40;1.00;;;;;;4901615;29;20596;-73
2023/10/29 07:26:46;;;;;;;0.50;0.20;;;13.40;1.00;;;;;;4899585;29;21015;-72
2023/10/29 07:29:14;;;;;;;0.50;0.10;;;13.50;1.00;;;;;;4899994;29;20503;-73
2023/10/29 07:31:42;;;;;;;1.10;0.63;;;13.50;1.00;;;;;;4901084;29;20494;-71
2023/10/29 07:34:10;;;;;;;0.50;0.10;;;13.50;1.00;;;;;;4907832;29;20479;-72
2023/10/29 07:36:44;;;;;;;0.60;0.50;;;13.50;1.00;;;;;;4902199;29;20512;-72
2023/10/29 07:39:12;;;;;;;0.90;0.73;;;13.40;1.00;;;;;;4898516;29;20492;-73
2023/10/29 07:41:39;;;;;;;0.50;0.10;;;13.50;1.00;;;;;;4898197;29;21137;-71
2023/10/29 07:44:07;;;;;;;25.63;18.13;;;13.50;1.00;;;;;;4898232;29;20527;-72
2023/10/29 07:46:36;;;;;;;0.50;0.10;;;13.50;1.00;;;;;;4898524;29;20522;-71
2023/10/29 07:49:04;;;;;;;0.50;0.10;;;13.50;1.00;;;;;;4898341;29;20463;-71
2023/10/29 07:51:32;;;;;;;0.60;0.30;;;13.50;1.00;;;;;;4890858;29;20491;-73
2023/10/29 07:54:01;;;;;;;0.60;0.30;;;13.60;1.00;;;;;;4898043;29;20504;-71
2023/10/29 07:56:29;;;;;;;0.50;0.20;;;13.60;1.00;;;;;;4898224;29;20493;-72
2023/10/29 07:58:57;;;;;;;0.50;0.10;;;13.60;1.00;;;;;;4898624;29;20590;-71
2023/10/29 08:01:25;;;;;;;0.50;0.10;;;13.60;1.00;;;;;;4898456;29;20975;-72
2023/10/29 08:03:55;;;;;;;0.50;0.20;;;13.60;1.00;;;;;;4897634;29;20841;-72
2023/10/29 08:06:24;;;;;;;0.60;0.30;;;13.60;1.00;;;;;;4897812;29;20965;-72
2023/10/29 08:08:51;;;;;;;0.60;0.20;;;13.60;1.00;;;;;;4897773;29;20453;-72
2023/10/29 08:11:22;;;;;;;0.50;0.10;;;13.60;1.00;;;;;;4898012;29;20467;-71
2023/10/29 08:13:50;;;;;;;0.50;0.10;;;13.70;1.00;;;;;;4898553;29;20519;-70
2023/10/29 08:16:19;;;;;;;0.50;0.10;;;13.80;1.00;;;;;;4898402;29;20527;-73
2023/10/29 08:18:47;;;;;;;0.50;0.10;;;13.80;1.00;;;;;;4898800;29;21078;-71
2023/10/29 08:21:17;;;;;;;0.50;0.10;;;;;;;;;;4898741;29;20966;-72
2023/10/29 08:23:45;;;;;;;0.50;0.10;;;13.90;1.00;;;;;;4900776;29;20583;-71
2023/10/29 08:26:14;;;;;;;0.50;0.10;;;13.90;1.00;;;;;;4902368;29;20461;-73
2023/10/29 08:28:43;;;;;;;0.50;0.20;;;14.00;1.00;;;;;;4901290;29;20511;-72
2023/10/29 08:31:12;;;;;;;0.50;0.10;;;13.90;1.00;;;;;;4899637;29;20528;-73
2023/10/29 08:33:40;;;;;;;0.50;0.10;;;13.90;1.00;;;;;;4901347;29;21007;-71
2023/10/29 08:36:08;;;;;;;0.50;0.10;;;14.00;1.00;;;;;;4903111;29;20451;-71
2023/10/29 08:38:36;;;;;;;1.10;0.93;;;14.00;1.00;;;;;;4900862;29;20503;-71
2023/10/29 08:41:13;;;;;;;0.70;0.37;;;14.00;1.00;;;;;;4901493;29;20459;-72
2023/10/29 08:43:42;;;;;;;0.50;0.10;;;14.00;1.00;;;;;;4901713;29;20526;-74
2023/10/29 08:46:10;;;;;;;1.93;0.93;;;14.00;1.00;;;;;;4901410;29;20476;-72
2023/10/29 08:48:39;;;;;;;0.50;0.20;;;14.10;1.00;;;;;;4899772;29;20504;-71
2023/10/29 08:51:08;;;;;;;0.60;0.23;;;14.10;1.00;;;;;;4901466;29;20496;-70
2023/10/29 08:53:36;;;;;;;3.37;0.77;;;14.20;1.00;;;;;;4894815;29;20484;-70
2023/10/29 08:56:04;;;;;;;0.70;0.37;;;14.20;1.00;;;;;;4904979;29;20452;-73
2023/10/29 08:58:32;;;;;;;0.53;0.20;;;14.20;1.00;;;;;;4902396;29;20495;-71
2023/10/29 09:01:06;;;;;;;0.60;0.20;;;14.20;1.00;;;;;;4903007;29;20460;-71
2023/10/29 09:03:34;;;;;;;0.60;0.20;;;14.30;1.00;;;;;;4895153;29;20479;-72
2023/10/29 09:06:04;;;;;;;0.70;0.30;;;14.30;1.00;;;;;;4905189;29;20463;-71
2023/10/29 09:08:33;;;;;;;3.10;0.70;;;14.30;1.00;;;;;;4902549;29;20536;-70
2023/10/29 09:11:01;;;;;;;0.60;0.20;;;14.30;1.00;;;;;;4900117;29;20512;-70
2023/10/29 09:13:30;;;;;;;0.93;0.70;;;14.30;1.00;;;;;;4897026;29;20594;-71
2023/10/29 09:15:59;;;;;;;0.50;0.20;;;14.20;1.00;;;;;;4899671;29;20461;-73
2023/10/29 09:18:29;;;;;;;0.60;0.10;;;14.30;1.00;;;;;;4901896;29;20508;-72
2023/10/29 09:20:57;;;;;;;0.50;0.20;;;14.30;1.00;;;;;;4897573;29;20457;-72
2023/10/29 09:23:25;;;;;;;0.60;0.20;;;14.30;1.00;;;;;;4896450;29;20574;-72
2023/10/29 09:25:53;;;;;;;1.70;0.80;;;14.30;1.00;;;;;;4897222;29;20461;-73
2023/10/29 09:28:22;;;;;;;0.60;0.20;;;14.20;1.00;;;;;;4896686;29;20523;-73
2023/10/29 09:30:49;;;;;;;1.33;0.40;;;14.20;1.00;;;;;;4896860;29;20449;-74
2023/10/29 09:33:17;;;;;;;5.33;2.43;;;14.30;1.00;;;;;;4889206;29;20523;-74
2023/10/29 09:35:47;;;;;;;0.50;0.10;;;14.30;1.00;;;;;;4903499;29;20963;-72
2023/10/29 09:38:16;;;;;;;0.50;0.10;;;14.30;1.00;;;;;;4901179;29;20543;-73
2023/10/29 09:40:44;;;;;;;0.70;0.60;;;14.40;1.00;;;;;;4899175;29;20479;-74
2023/10/29 09:43:14;;;;;;;0.60;0.10;;;14.40;1.00;;;;;;4902697;29;20504;-73
2023/10/29 09:45:45;;;;;;;0.60;0.40;;;14.40;1.00;;;;;;4901486;29;20489;-73
2023/10/29 09:48:14;;;;;;;0.70;0.47;;;14.50;1.00;;;;;;4902521;29;20986;-74
2023/10/29 09:50:43;;;;;;;2.60;0.60;;;14.50;1.00;;;;;;4902081;29;20453;-73
2023/10/29 09:53:15;;;;;;;0.70;0.60;;;14.50;1.00;;;;;;4901770;29;20480;-78
2023/10/29 09:55:43;;;;;;;0.53;0.10;;;14.50;1.00;;;;;;4902065;29;20456;-74
2023/10/29 09:58:11;;;;;;;0.60;0.20;;;14.60;1.00;;;;;;4903290;29;20493;-72
2023/10/29 10:00:39;;;;;;;0.70;0.30;;;14.60;1.00;;;;;;4901988;29;21019;-75
2023/10/29 10:03:07;;;;;;;0.70;0.47;;;14.60;1.00;;;;;;4904634;29;20528;-73
2023/10/29 10:05:36;;;;;;;1.57;0.40;;;14.60;1.00;;;;;;4902291;29;20469;-73
2023/10/29 10:08:05;;;;;;;0.60;0.10;;;14.60;1.00;;;;;;4900716;29;20484;-74
2023/10/29 10:10:42;;;;;;;0.80;0.47;;;14.60;1.00;;;;;;4899962;29;20473;-73
2023/10/29 10:13:10;;;;;;;0.60;0.20;;;14.50;1.00;;;;;;4899784;29;20479;-74
2023/10/29 10:15:39;;;;;;;0.60;0.10;;;14.50;1.00;;;;;;4896740;29;20441;-73
2023/10/29 10:18:07;;;;;;;0.60;0.20;;;14.50;1.00;;;;;;4909061;29;20902;-73
2023/10/29 10:20:36;;;;;;;0.60;0.10;;;14.50;1.00;;;;;;4908501;29;20480;-73
2023/10/29 10:23:05;;;;;;;0.60;0.20;;;14.60;1.00;;;;;;4908624;29;20487;-74
2023/10/29 10:25:34;;;;;;;4.00;2.17;;;14.60;1.00;;;;;;4905318;29;20543;-72
2023/10/29 10:28:05;;;;;;;0.60;0.10;;;14.60;1.00;;;;;;4900977;29;20483;-73
2023/10/29 10:30:35;;;;;;;0.60;0.10;;;14.70;1.00;;;;;;4900650;29;20460;-73
2023/10/29 10:33:12;;;;;;;0.60;0.10;;;14.80;1.00;;;;;;4901035;29;21644;-73
2023/10/29 10:35:45;;;;;;;0.60;0.10;;;14.90;1.00;;;;;;4905736;29;20467;-73
2023/10/29 10:38:15;;;;;;;0.57;0.10;;;14.90;1.00;;;;;;4899905;29;20547;-73
2023/10/29 10:40:44;;;;;;;0.60;0.17;;;14.90;1.00;;;;;;4899573;29;20495;-73
2023/10/29 10:43:19;;;;;;;0.60;0.10;;;15.00;1.00;;;;;;4899608;29;20472;-73
2023/10/29 10:45:50;;;;;;;0.60;0.10;;;14.90;1.00;;;;;;4899736;29;20949;-73
2023/10/29 10:48:18;;;;;;;0.60;0.17;;;14.90;1.00;;;;;;4899690;29;20470;-73
2023/10/29 10:50:47;;;;;;;1.10;0.50;;;14.90;1.00;;;;;;4899533;29;20488;-72
2023/10/29 10:53:15;;;;;;;0.60;0.10;;;14.90;1.00;;;;;;4899587;29;20476;-73
2023/10/29 10:55:44;;;;;;;0.80;0.30;;;14.80;99.90;;;;;;4898168;29;21251;-73
2023/10/29 10:58:31;;;;;;;0.60;0.20;;;14.80;1.00;;;;;;4898450;29;20452;-73
2023/10/29 11:01:00;;;;;;;0.60;0.20;;;14.70;1.00;;;;;;4898326;29;21052;-73
2023/10/29 11:03:32;;;;;;;0.60;0.10;;;14.70;1.00;;;;;;4898465;29;20468;-73
2023/10/29 11:06:02;;;;;;;0.60;0.10;;;14.70;1.00;;;;;;4898822;29;20863;-74
2023/10/29 11:08:31;;;;;;;0.60;0.10;;;14.70;1.00;;;;;;4898811;29;20452;-73
2023/10/29 11:10:59;;;;;;;0.60;0.10;;;;;;;;;;4898381;29;20468;-73
2023/10/29 11:13:27;;;;;;;1.10;0.63;;;14.70;1.00;;;;;;4922643;23;20554;-74
2023/10/29 11:15:56;;;;;;;0.60;0.10;;;14.70;1.00;;;;;;4905756;29;20461;-74
2023/10/29 11:18:29;;;;;;;0.60;0.10;;;14.60;1.00;;;;;;4898192;29;20823;-75
2023/10/29 11:20:59;;;;;;;0.60;0.10;;;14.70;1.00;;;;;;4900941;29;20548;-74
2023/10/29 11:23:29;;;;;;;0.60;0.10;;;14.70;1.00;;;;;;4901072;29;20505;-75
2023/10/29 11:26:23;;;;;;;0.50;0.10;;;14.70;1.00;;;;;;4907434;29;20457;-73
2023/10/29 11:28:52;;;;;;;0.60;0.10;;;14.70;1.00;;;;;;4899846;29;20535;-73
2023/10/29 11:31:22;;;;;;;0.60;0.10;;;14.80;1.00;;;;;;4899589;29;20458;-76
2023/10/29 11:34:23;;;;;;;0.60;0.10;;;14.70;1.00;;;;;;4898993;29;20476;-76
2023/10/29 11:36:51;;;;;;;0.60;0.10;;;14.70;1.00;;;;;;4893281;29;20536;-76
2023/10/29 11:39:32;;;;;;;1.23;0.63;;;14.80;1.00;;;;;;4900277;29;20449;-75
2023/10/29 11:42:00;;;;;;;0.60;0.10;;;14.80;1.00;;;;;;4900060;29;20448;-76
2023/10/29 11:44:29;;;;;;;0.60;0.10;;;14.80;1.00;;;;;;4901434;29;20464;-75
2023/10/29 11:47:06;;;;;;;0.60;0.20;;;14.70;1.00;;;;;;4900704;29;20451;-74
2023/10/29 11:50:11;;;;;;;0.57;0.10;;;14.70;1.00;;;;;;4901161;29;20717;-76
2023/10/29 11:52:43;;;;;;;0.60;0.10;;;14.60;1.00;;;;;;4899285;29;20465;-76
2023/10/29 11:55:12;;;;;;;0.57;0.10;;;14.60;1.00;;;;;;4901801;29;20444;-77
2023/10/29 11:57:46;;;;;;;0.80;0.40;;;14.50;1.00;;;;;;4901281;29;20508;-75
2023/10/29 12:00:15;;;;;;;0.60;0.30;;;14.50;1.00;;;;;;4900507;29;20588;-75
2023/10/29 12:02:48;;;;;;;0.50;0.10;;;14.40;1.00;;;;;;4894809;29;20448;-75
2023/10/29 12:05:16;;;;;;;0.60;0.20;;;14.40;1.00;;;;;;4901974;29;20490;-76
2023/10/29 12:07:45;;;;;;;0.50;0.10;;;14.20;1.00;;;;;;4904004;29;20465;-77
2023/10/29 12:10:13;;;;;;;0.50;0.10;;;14.40;1.00;;;;;;4905109;29;20447;-76
2023/10/29 12:12:52;;;;;;;0.50;0.10;;;14.40;1.00;;;;;;4900580;29;20442;-76
2023/10/29 12:15:23;;;;;;;0.53;0.10;;;14.40;1.00;;;;;;4900506;29;20444;-75
2023/10/29 12:17:53;;;;;;;0.60;0.10;;;14.40;1.00;;;;;;4901290;29;20815;-77
2023/10/29 12:20:28;;;;;;;5.77;1.43;;;14.40;1.00;;;;;;4902319;29;20903;-75
2023/10/29 12:22:57;;;;;;;0.60;0.20;;;14.40;1.00;;;;;;4900258;29;20463;-74
2023/10/29 12:25:26;;;;;;;0.50;0.10;;;14.40;1.00;;;;;;4899368;29;20975;-75
2023/10/29 12:27:55;;;;;;;0.50;0.20;;;;;;;;;;4900381;29;20450;-75
2023/10/29 12:30:36;;;;;;;0.50;0.10;;;14.40;1.00;;;;;;4899358;29;20513;-72
2023/10/29 12:33:22;;;;;;;0.50;0.20;;;14.40;1.00;;;;;;4900534;29;20474;-74
2023/10/29 12:35:52;;;;;;;0.50;0.20;;;14.40;1.00;;;;;;4894461;29;20447;-74
2023/10/29 12:38:20;;;;;;;0.50;0.10;;;14.40;1.00;;;;;;4901175;29;20463;-75
2023/10/29 12:41:13;;;;;;;0.50;0.10;;;14.20;1.00;;;;;;4892607;29;20488;-74
2023/10/29 12:43:42;;;;;;;0.77;0.33;;;14.20;1.00;;;;;;4897806;29;20471;-74
2023/10/29 12:46:12;;;;;;;0.50;0.20;;;14.20;1.00;;;;;;4897161;29;20454;-76
2023/10/29 12:49:01;;;;;;;0.50;0.10;;;14.20;1.00;;;;;;4896803;29;20455;-74
2023/10/29 12:51:31;;;;;;;0.50;0.10;;;14.20;1.00;;;;;;4896420;29;20958;-74
2023/10/29 12:54:12;;;;;;;0.50;0.10;;;14.20;1.00;;;;;;4896566;29;20481;-73
2023/10/29 12:56:51;;;;;;;0.50;0.10;;;14.20;1.00;;;;;;4896402;29;20457;-74
2023/10/29 12:59:21;;;;;;;0.50;0.10;;;14.10;1.00;;;;;;4897647;29;20959;-74
2023/10/29 13:01:53;;;;;;;0.60;0.30;;;14.10;1.00;;;;;;4897297;29;20488;-73
2023/10/29 13:04:23;;;;;;;0.50;0.10;;;14.10;1.00;;;;;;4896857;29;20483;-74
2023/10/29 13:06:53;;;;;;;0.50;0.10;;;14.10;1.00;;;;;;4890509;29;20488;-74
2023/10/29 13:09:22;;;;;;;0.50;0.10;;;14.10;1.00;;;;;;4898015;29;20818;-74
2023/10/29 13:11:51;;;;;;;0.50;0.10;;;14.10;1.00;;;;;;4897581;29;20496;-74
2023/10/29 13:14:22;;;;;;;0.50;0.10;;;14.10;1.00;;;;;;4898321;29;20515;-75
2023/10/29 13:16:51;;;;;;;0.50;0.10;;;14.10;1.00;;;;;;4898590;29;20538;-73
2023/10/29 13:19:19;;;;;;;0.50;0.10;;;14.20;1.00;;;;;;4898977;29;20456;-74
2023/10/29 13:21:50;;;;;;;0.50;0.10;;;14.10;1.00;;;;;;4890514;29;20490;-73
2023/10/29 13:24:19;;;;;;;0.50;0.10;;;14.20;1.00;;;;;;4898146;29;20465;-73
2023/10/29 13:26:47;;;;;;;0.50;0.10;;;14.20;1.00;;;;;;4897712;29;20531;-74
2023/10/29 13:29:15;;;;;;;0.50;0.10;;;14.10;1.00;;;;;;4898171;29;20449;-76
2023/10/29 13:31:45;;;;;;;0.50;0.10;;;14.20;1.00;;;;;;4906787;29;20816;-74
2023/10/29 13:34:13;;;;;;;0.50;0.10;;;14.20;1.00;;;;;;4900369;29;20477;-75
2023/10/29 13:36:41;;;;;;;0.80;0.40;;;14.20;1.00;;;;;;4910314;29;21022;-75
2023/10/29 13:39:11;;;;;;;0.50;0.13;;;14.20;1.00;;;;;;4904342;29;20492;-75
2023/10/29 13:41:40;;;;;;;0.70;0.30;;;14.10;1.00;;;;;;4901233;29;21332;-75
2023/10/29 13:44:07;;;;;;;0.50;0.10;;;14.00;1.00;;;;;;4900878;29;20471;-76
2023/10/29 13:46:35;;;;;;;0.50;0.10;;;13.90;1.00;;;;;;4901356;29;20455;-75
2023/10/29 13:49:04;;;;;;;0.50;0.10;;;13.90;1.00;;;;;;4904093;29;20848;-74
2023/10/29 13:51:32;;;;;;;0.60;0.37;;;13.90;1.00;;;;;;4898817;29;20538;-74
2023/10/29 13:54:00;;;;;;;0.50;0.10;;;13.90;1.00;;;;;;4898324;29;20503;-74
2023/10/29 13:56:29;;;;;;;0.50;0.10;;;13.90;1.00;;;;;;4898263;29;20487;-76
2023/10/29 13:58:57;;;;;;;0.50;0.10;;;13.90;1.00;;;;;;4897424;29;20454;-75
2023/10/29 14:01:25;;;;;;;0.50;0.10;;;13.90;1.00;;;;;;4898285;29;20492;-75
2023/10/29 14:03:55;;;;;;;0.50;0.10;;;13.90;1.00;;;;;;4898557;29;20502;-75
2023/10/29 14:06:23;;;;;;;0.50;0.10;;;13.90;1.00;;;;;;4899098;29;20457;-75
2023/10/29 14:08:51;;;;;;;0.50;0.10;;;13.80;1.00;;;;;;4890437;29;20862;-76
2023/10/29 14:11:19;;;;;;;0.50;0.10;;;13.80;1.00;;;;;;4897511;29;20920;-76
2023/10/29 14:13:50;;;;;;;0.50;0.10;;;13.80;1.00;;;;;;4896946;29;20561;-76
2023/10/29 14:16:18;;;;;;;0.50;0.10;;;13.80;1.00;;;;;;4897306;29;20457;-74
2023/10/29 14:18:46;;;;;;;0.50;0.10;;;13.80;1.00;;;;;;4899104;29;20447;-75
2023/10/29 14:21:14;;;;;;;0.50;0.10;;;13.80;1.00;;;;;;4898727;29;20548;-76
2023/10/29 14:23:43;;;;;;;0.50;0.10;;;13.80;1.00;;;;;;4896747;29;20472;-74
2023/10/29 14:26:11;;;;;;;0.50;0.10;;;13.90;1.00;;;;;;4896853;29;20445;-74
2023/10/29 14:28:39;;;;;;;0.50;0.20;;;13.80;1.00;;;;;;4897015;29;20448;-73
2023/10/29 14:31:08;;;;;;;0.50;0.10;;;13.90;1.00;;;;;;4897666;29;21023;-74
2023/10/29 14:33:36;;;;;;;0.50;0.20;;;13.90;1.00;;;;;;4900360;29;20469;-76
2023/10/29 14:36:04;;;;;;;0.70;0.33;;;13.90;1.00;;;;;;4901439;29;21009;-74
2023/10/29 14:38:32;;;;;;;0.50;0.10;;;13.90;1.00;;;;;;4900440;29;20457;-74
2023/10/29 14:41:00;;;;;;;0.50;0.10;;;13.90;1.00;;;;;;4913418;29;20546;-76
2023/10/29 14:43:28;;;;;;;0.50;0.10;;;13.90;1.00;;;;;;4902404;29;20500;-77
2023/10/29 14:46:02;;;;;;;0.50;0.10;;;13.90;1.00;;;;;;4900183;29;20477;-76
2023/10/29 14:48:31;;;;;;;0.50;0.10;;;14.00;1.00;;;;;;4899846;29;20568;-76
2023/10/29 14:51:04;;;;;;;0.50;0.10;;;13.90;1.00;;;;;;4900420;29;20463;-74
2023/10/29 14:53:32;;;;;;;0.50;0.10;;;13.90;1.00;;;;;;4900052;29;20468;-74
2023/10/29 14:56:00;;;;;;;0.50;0.10;;;13.90;1.00;;;;;;4900894;29;20527;-76
2023/10/29 14:58:28;;;;;;;0.50;0.20;;;13.90;1.00;;;;;;4899637;29;20457;-75
2023/10/29 15:00:56;;;;;;;0.50;0.20;;;13.80;1.00;;;;;;4898502;29;20542;-75
2023/10/29 15:03:24;;;;;;;0.50;0.10;;;13.80;1.00;;;;;;4898353;29;20500;-77
2023/10/29 15:05:53;;;;;;;0.50;0.10;;;13.80;1.00;;;;;;4898843;29;20455;-74
2023/10/29 15:08:22;;;;;;;0.50;0.10;;;13.90;1.00;;;;;;4898292;29;20519;-75
2023/10/29 15:10:53;;;;;;;0.50;0.10;;;14.00;28.70;;;;;;4898632;29;20569;-75
2023/10/29 15:13:22;;;;;;;0.50;0.10;;;13.90;20.70;;;;;;4898231;29;20477;-74
2023/10/29 15:15:50;;;;;;;0.50;0.10;;;14.00;18.90;;;;;;4898556;29;20487;-76
2023/10/29 15:18:18;;;;;;;0.50;0.20;;;13.90;1.00;;;;;;4897935;29;20874;-75
2023/10/29 15:20:46;;;;;;;0.50;0.10;;;;;;;;;;4898227;29;20511;-75
2023/10/29 15:23:28;;;;;;;0.50;0.10;;;13.90;3.20;;;;;;4897990;29;20523;-76
2023/10/29 15:25:55;;;;;;;0.50;0.10;;;13.90;1.00;;;;;;4897949;29;20484;-74
2023/10/29 15:28:23;;;;;;;0.53;0.20;;;13.90;1.00;;;;;;4898282;29;20457;-76
2023/10/29 15:30:52;;;;;;;0.50;0.20;;;;;;;;;;4897947;29;20462;-76
2023/10/29 15:33:19;;;;;;;0.90;0.30;;;13.90;1.00;;;;;;4897876;29;20476;-74
2023/10/29 15:35:47;;;;;;;0.50;0.20;;;13.90;4.50;;;;;;4897937;29;20452;-74
2023/10/29 15:38:15;;;;;;;0.50;0.10;;;13.80;6.50;;;;;;4897897;29;20869;-76
2023/10/29 15:40:44;;;;;;;0.50;0.10;;;13.80;14.60;;;;;;4898354;29;20539;-76
2023/10/29 15:43:12;;;;;;;0.50;0.30;;;13.80;30.20;;;;;;4896869;29;20498;-76
2023/10/29 15:45:42;;;;;;;2.97;0.97;;;13.80;47.00;;;;;;4897558;29;20456;-75
2023/10/29 15:48:10;;;;;;;0.50;0.20;;;13.80;55.90;;;;;;4897533;29;20461;-74
2023/10/29 15:50:38;;;;;;;0.50;0.10;;;13.70;61.60;;;;;;4896651;29;20947;-77
2023/10/29 15:53:06;;;;;;;0.60;0.20;;;13.70;99.70;;;;;;4897502;29;20496;-74
2023/10/29 15:55:34;;;;;;;0.60;0.20;;;13.70;99.90;;;;;;4897417;29;20516;-75
2023/10/29 15:58:04;;;;;;;0.50;0.20;;;13.70;99.90;;;;;;4898688;29;20543;-74
2023/10/29 16:00:35;;;;;;;0.50;0.20;;;13.70;99.90;;;;;;4897988;29;20448;-76
2023/10/29 16:03:03;;;;;;;0.50;0.20;;;13.70;99.90;;;;;;4899431;29;20520;-76
2023/10/29 16:05:31;;;;;;;0.60;0.40;;;13.70;99.90;;;;;;4898978;29;20460;-75
2023/10/29 16:07:59;;;;;;;0.50;0.10;;;13.70;99.90;;;;;;4898367;29;20528;-75
2023/10/29 16:10:27;;;;;;;0.50;0.10;;;13.80;99.90;;;;;;4897698;29;20539;-75
2023/10/29 16:12:55;;;;;;;0.50;0.20;;;13.80;99.90;;;;;;4897197;29;20540;-74
2023/10/29 16:15:25;;;;;;;0.60;0.20;;;13.80;99.90;;;;;;4897313;29;20551;-74
2023/10/29 16:17:53;;;;;;;0.50;0.10;;;13.80;98.90;;;;;;4897306;29;20471;-76
2023/10/29 16:20:21;;;;;;;2.93;0.60;;;13.70;99.90;;;;;;4897835;29;20496;-74
2023/10/29 16:22:48;;;;;;;0.50;0.10;;;13.70;98.30;;;;;;4897362;29;20495;-76
2023/10/29 16:25:16;;;;;;;0.50;0.10;;;13.70;92.50;;;;;;4897319;29;20455;-74
2023/10/29 16:27:44;;;;;;;0.50;0.10;;;13.70;96.80;;;;;;4896896;29;20966;-74
2023/10/29 16:30:13;;;;;;;0.50;0.20;;;13.70;99.90;;;;;;4897698;29;20454;-75
2023/10/29 16:32:43;;;;;;;0.50;0.20;;;13.70;99.90;;;;;;4897105;29;20530;-75
2023/10/29 16:35:11;;;;;;;0.50;0.10;;;13.70;99.90;;;;;;4897060;29;20468;-77
2023/10/29 16:37:39;;;;;;;0.50;0.10;;;13.70;99.90;;;;;;4896804;29;20539;-75
2023/10/29 16:40:09;;;;;;;0.50;0.10;;;13.70;99.90;;;;;;4897010;29;20557;-76
2023/10/29 16:42:36;;;;;;;0.50;0.20;;;13.70;99.90;;;;;;4897532;29;20577;-74
2023/10/29 16:45:06;;;;;;;0.60;0.40;;;13.80;99.90;;;;;;4897399;29;21048;-74
2023/10/29 16:47:34;;;;;;;0.50;0.10;;;13.60;99.90;;;;;;4897432;29;20457;-76
2023/10/29 16:50:04;;;;;;;0.50;0.20;;;13.60;98.40;;;;;;4898802;29;20508;-76
2023/10/29 16:52:33;;;;;;;0.50;0.20;;;13.50;99.90;;;;;;4899762;29;20477;-75
2023/10/29 16:55:01;;;;;;;0.60;0.50;;;13.50;99.90;;;;;;4897479;29;20472;-74
2023/10/29 16:57:29;;;;;;;0.60;0.43;;;13.60;99.90;;;;;;4898160;29;20870;-75
2023/10/29 16:59:57;;;;;;;0.60;0.30;;;13.50;99.90;;;;;;4898144;29;20448;-75
2023/10/29 17:02:28;;;;;;;0.50;0.20;;;13.50;99.90;;;;;;4897956;29;20468;-75
2023/10/29 17:04:56;;;;;;;0.70;0.40;;;13.40;92.00;;;;;;4899480;29;20499;-75
2023/10/29 17:07:26;;;;;;;0.50;0.20;;;13.40;96.90;;;;;;4899267;29;20535;-75
2023/10/29 17:09:55;;;;;;;0.50;0.20;;;13.40;99.60;;;;;;4904501;29;20911;-77
2023/10/29 17:12:23;;;;;;;0.50;0.10;;;;;;;;;;4905042;29;20449;-75
2023/10/29 17:14:51;;;;;;;0.50;0.20;;;13.50;90.20;;;;;;4950073;23;20958;-72
2023/10/29 17:17:21;;;;;;;0.50;0.20;;;13.40;96.70;;;;;;4914168;29;20515;-73
2023/10/29 17:19:49;;;;;;;0.63;0.40;;;13.60;98.10;;;;;;4898244;29;20486;-73
2023/10/29 17:22:17;;;;;;;0.50;0.20;;;13.50;59.90;;;;;;4898054;29;21011;-73
2023/10/29 17:24:47;;;;;;;0.50;0.10;;;13.50;50.60;;;;;;4911504;29;20581;-72
2023/10/29 17:27:15;;;;;;;0.50;0.10;;;13.60;39.50;;;;;;4906600;29;20452;-73
2023/10/29 17:29:43;;;;;;;0.50;0.20;;;13.60;49.00;;;;;;4914407;29;21145;-74
2023/10/29 17:32:11;;;;;;;0.50;0.10;;;13.60;1.00;;;;;;4910867;29;20539;-72
2023/10/29 17:34:39;;;;;;;0.90;0.27;;;13.60;1.00;;;;;;4909785;29;20467;-73
2023/10/29 17:37:06;;;;;;;0.50;0.20;;;13.50;1.00;;;;;;4906786;29;20459;-73
2023/10/29 17:39:47;;;;;;;0.60;0.33;;;13.60;1.00;;;;;;4914519;29;20454;-74
2023/10/29 17:42:15;;;;;;;0.50;0.10;;;13.60;1.00;;;;;;4909369;29;20455;-73
2023/10/29 17:44:42;;;;;;;0.50;0.10;;;13.60;1.00;;;;;;4906735;29;20528;-74
2023/10/29 17:47:10;;;;;;;0.50;0.10;;;13.50;1.00;;;;;;4913777;29;20535;-73
2023/10/29 17:49:38;;;;;;;0.50;0.10;;;13.60;1.00;;;;;;4909701;29;20475;-75
2023/10/29 17:52:06;;;;;;;0.50;0.27;;;13.60;1.00;;;;;;4908697;29;20981;-74
2023/10/29 17:54:34;;;;;;;0.50;0.10;;;13.60;1.00;;;;;;4914473;29;20493;-73
2023/10/29 17:57:04;;;;;;;0.50;0.10;;;13.50;1.00;;;;;;4914200;29;20455;-72
2023/10/29 17:59:31;;;;;;;0.50;0.20;;;13.50;1.00;;;;;;4910651;29;20463;-72
2023/10/29 18:01:59;;;;;;;2.10;1.93;;;13.40;1.00;;;;;;4910901;29;20483;-73
2023/10/29 18:04:27;;;;;;;0.70;0.30;;;13.40;1.00;;;;;;4909563;29;20493;-73
2023/10/29 18:06:57;;;;;;;0.50;0.10;;;13.40;1.00;;;;;;4910466;29;20851;-73
2023/10/29 18:09:25;;;;;;;0.50;0.10;;;13.40;1.00;;;;;;4912599;29;20544;-74
2023/10/29 18:11:55;;;;;;;0.50;0.20;;;13.40;1.00;;;;;;4909897;29;20458;-72